Time;durP1;ratioP1;P1;durP2;ratioP2;P2;SDS_P1;SDS_P2;PMS_P1;PMS_P2;Temp;Humidity;BMP_temperature;BMP_pressure;BME280_temperature;BME280_humidity;BME280_pressure;Samples;Min_cycle;Max_cycle;Signal;HPM_P1;HPM_P2
2022/11/10 00:01:55;;;;;;;15.95;3.80;;;;;;;8.73;100.00;101537.63;5249654;28;20041;-66
2022/11/10 00:04:26;;;;;;;15.43;3.08;;;;;;;8.74;100.00;101538.47;5244879;28;20033;-66
2022/11/10 00:06:57;;;;;;;13.50;3.22;;;;;;;8.71;100.00;101533.34;5245214;28;20039;-66
2022/11/10 00:09:29;;;;;;;14.98;3.30;;;;;;;8.70;100.00;101543.09;5245117;28;20051;-66
2022/11/10 00:12:00;;;;;;;13.73;3.15;;;;;;;8.69;100.00;101548.53;5247300;28;20876;-67
2022/11/10 00:17:21;;;;;;;12.02;3.17;;;;;;;8.78;100.00;101546.19;5246406;28;20049;-67
2022/11/10 00:19:52;;;;;;;10.80;3.17;;;;;;;8.70;100.00;101545.75;5245541;28;20534;-66
2022/11/10 00:22:24;;;;;;;13.88;3.13;;;;;;;8.66;100.00;101544.22;5246936;28;20502;-66
2022/11/10 00:24:55;;;;;;;14.50;3.45;;;;;;;8.62;100.00;101542.69;5245912;28;20040;-67
2022/11/10 00:27:26;;;;;;;13.43;3.40;;;;;;;8.72;100.00;101541.22;5244089;28;20052;-67
2022/11/10 00:29:58;;;;;;;10.65;3.15;;;;;;;8.73;100.00;101550.91;5245775;28;20056;-66
2022/11/10 00:32:29;;;;;;;11.13;2.90;;;;;;;8.70;100.00;101545.75;5244253;28;20124;-67
2022/11/10 00:35:00;;;;;;;13.27;3.50;;;;;;;8.62;100.00;101559.50;5239380;28;20482;-67
2022/11/10 00:37:32;;;;;;;10.40;3.00;;;;;;;8.60;100.00;101560.53;5240679;28;20494;-67
2022/11/10 00:40:03;;;;;;;12.30;3.42;;;;;;;8.59;100.00;101573.00;5241126;28;20424;-66
2022/11/10 00:42:35;;;;;;;14.63;3.47;;;;;;;8.59;100.00;101580.09;5242151;28;20029;-67
2022/11/10 00:45:08;;;;;;;15.00;3.50;;;;;;;8.59;100.00;101569.44;5244013;28;20056;-66
2022/11/10 00:47:39;;;;;;;13.43;3.20;;;;;;;8.56;100.00;101577.63;5246393;28;20369;-66
2022/11/10 00:50:11;;;;;;;19.02;4.13;;;;;;;8.58;100.00;101579.25;5245417;28;20033;-66
2022/11/10 00:52:42;;;;;;;14.70;4.28;;;;;;;8.60;100.00;101582.66;5244072;28;20033;-67
2022/11/10 00:55:13;;;;;;;15.82;3.40;;;;;;;8.56;100.00;101588.25;5245715;28;20131;-66
2022/11/10 00:57:44;;;;;;;11.43;3.80;;;;;;;8.56;100.00;101580.28;5247119;28;20048;-66
2022/11/10 01:00:16;;;;;;;11.98;3.45;;;;;;;8.53;100.00;101572.47;5247525;28;20089;-67
2022/11/10 01:02:47;;;;;;;14.80;3.67;;;;;;;8.53;100.00;101577.78;5248920;28;20029;-66
2022/11/10 01:05:20;;;;;;;17.23;3.78;;;;;;;8.58;100.00;101576.59;5249215;28;20110;-66
2022/11/10 01:07:51;;;;;;;14.57;3.33;;;;;;;8.52;100.00;101584.06;5250598;28;20025;-66
2022/11/10 01:10:22;;;;;;;15.90;3.90;;;;;;;8.49;100.00;101578.91;5248057;28;20447;-66
2022/11/10 01:12:54;;;;;;;13.18;3.60;;;;;;;8.50;100.00;101577.97;5250900;28;20459;-68
2022/11/10 01:15:26;;;;;;;15.10;3.65;;;;;;;8.56;100.00;101578.47;5243982;28;20584;-67
2022/11/10 01:17:57;;;;;;;15.40;3.20;;;;;;;8.54;100.00;101582.19;5248675;28;20067;-67
2022/11/10 01:20:28;;;;;;;15.25;3.30;;;;;;;8.51;100.00;101587.66;5248577;28;20462;-68
2022/11/10 01:23:00;;;;;;;13.10;2.92;;;;;;;8.47;100.00;101586.97;5249002;28;20029;-66
2022/11/10 01:25:32;;;;;;;13.85;3.60;;;;;;;8.53;100.00;101597.25;5246618;28;20039;-67
2022/11/10 01:28:03;;;;;;;13.35;3.60;;;;;;;8.49;100.00;101610.81;5249593;28;20036;-67
2022/11/10 01:30:34;;;;;;;16.55;4.22;;;;;;;8.52;100.00;101624.81;5247162;28;20033;-67
2022/11/10 01:33:05;;;;;;;16.02;3.90;;;;;;;8.49;100.00;101621.47;5249632;28;20261;-67
2022/11/10 01:35:37;;;;;;;12.27;2.97;;;;;;;8.49;100.00;101617.00;5246254;28;20070;-67
2022/11/10 01:38:08;;;;;;;15.43;3.25;;;;;;;8.47;100.00;101621.53;5244725;28;20497;-66
2022/11/10 01:40:39;;;;;;;10.02;2.97;;;;;;;8.46;100.00;101622.50;5251111;28;20483;-67
2022/11/10 01:43:12;;;;;;;16.83;3.20;;;;;;;8.49;100.00;101621.47;5249335;28;20060;-67
2022/11/10 01:45:57;;;;;;;14.40;3.22;;;;;;;8.47;100.00;101626.00;5250702;28;20112;-67
2022/11/10 01:48:41;;;;;;;;;;;;;;;8.49;100.00;101622.31;5248469;28;20032;-67
2022/11/10 01:51:25;;;;;;;12.03;3.13;;;;;;;8.46;100.00;101626.94;5245567;28;19964;-66
2022/11/10 01:54:11;;;;;;;14.05;3.47;;;;;;;8.44;100.00;101622.56;5245533;28;20058;-67
2022/11/10 01:56:47;;;;;;;11.93;3.50;;;;;;;8.42;100.00;101616.47;5248492;28;20036;-67
2022/11/10 01:59:23;;;;;;;14.70;3.08;;;;;;;8.39;100.00;101616.59;5247102;28;20079;-67
2022/11/10 02:02:02;;;;;;;15.52;3.55;;;;;;;8.45;100.00;101618.09;5245196;28;20029;-67
2022/11/10 02:04:33;;;;;;;15.05;3.17;;;;;;;8.40;100.00;101614.84;5249964;28;20025;-67
2022/11/10 02:07:05;;;;;;;11.35;3.25;;;;;;;8.41;100.00;101613.88;5249683;28;20102;-67
2022/11/10 02:09:36;;;;;;;13.43;3.60;;;;;;;8.46;100.00;101616.28;5243698;28;20013;-67
2022/11/10 02:12:08;;;;;;;12.00;3.08;;;;;;;8.37;100.00;101623.81;5242788;28;20394;-66
2022/11/10 02:14:40;;;;;;;14.27;3.30;;;;;;;8.39;100.00;101621.94;5247071;28;20115;-67
2022/11/10 02:17:12;;;;;;;13.93;3.38;;;;;;;8.36;100.00;101618.56;5247885;28;20115;-66
2022/11/10 02:19:43;;;;;;;12.93;3.15;;;;;;;8.37;100.00;101622.97;5248973;28;20414;-67
2022/11/10 02:22:14;;;;;;;14.77;3.20;;;;;;;8.36;100.00;101627.44;5251446;28;20029;-67
2022/11/10 02:24:45;;;;;;;17.17;3.72;;;;;;;8.37;100.00;101631.78;5253745;28;20017;-67
2022/11/10 02:27:17;;;;;;;15.88;3.33;;;;;;;8.40;100.00;101638.75;5253880;28;20131;-67
2022/11/10 02:29:48;;;;;;;14.13;3.08;;;;;;;8.36;100.00;101640.72;5252213;28;20024;-67
2022/11/10 02:32:19;;;;;;;14.40;3.20;;;;;;;8.51;100.00;101647.00;5253993;28;20064;-67
2022/11/10 02:34:51;;;;;;;19.02;3.28;;;;;;;8.39;100.00;101650.31;5253250;28;20029;-67
2022/11/10 02:37:22;;;;;;;16.98;3.70;;;;;;;8.37;100.00;101658.38;5244742;28;20064;-67
2022/11/10 02:39:53;;;;;;;18.08;3.70;;;;;;;8.40;100.00;101663.53;5251895;28;20029;-67
2022/11/10 02:42:25;;;;;;;8.90;2.67;;;;;;;8.35;100.00;101672.72;5250615;28;20494;-66
2022/11/10 02:44:57;;;;;;;17.05;3.45;;;;;;;8.35;100.00;101678.03;5253702;28;20029;-66
2022/11/10 02:47:29;;;;;;;13.13;3.85;;;;;;;8.41;100.00;101678.56;5250916;28;20043;-66
2022/11/10 02:50:00;;;;;;;10.38;2.75;;;;;;;8.42;100.00;101682.97;5249370;28;20360;-66
2022/11/10 02:52:32;;;;;;;16.13;2.97;;;;;;;8.33;100.00;101686.09;5251945;28;20043;-66
2022/11/10 02:55:04;;;;;;;17.23;3.85;;;;;;;8.31;100.00;101687.97;5231415;28;21479;-66
2022/11/10 02:57:36;;;;;;;17.73;3.75;;;;;;;8.31;100.00;101672.00;5248682;28;20033;-66
2022/11/10 03:00:08;;;;;;;14.90;3.13;;;;;;;8.31;100.00;101677.34;5249917;28;20036;-66
2022/11/10 03:02:39;;;;;;;12.85;3.10;;;;;;;8.32;100.00;101673.75;5247118;28;20378;-66
2022/11/10 03:05:11;;;;;;;9.18;2.33;;;;;;;8.38;100.00;101672.53;5251098;28;20322;-66
2022/11/10 03:07:42;;;;;;;13.40;3.58;;;;;;;8.32;100.00;101673.75;5252069;28;20074;-66
2022/11/10 03:10:14;;;;;;;13.77;3.13;;;;;;;8.23;100.00;101679.56;5251459;28;20028;-66
2022/11/10 03:12:45;;;;;;;11.60;2.80;;;;;;;8.26;100.00;101690.00;5251526;28;20130;-66
2022/11/10 03:15:17;;;;;;;13.52;2.90;;;;;;;8.23;100.00;101698.16;5248594;28;20040;-66
2022/11/10 03:17:48;;;;;;;13.65;3.13;;;;;;;8.22;100.00;101691.97;5250402;28;20029;-66
2022/11/10 03:20:20;;;;;;;12.38;3.10;;;;;;;8.17;100.00;101694.03;5250385;28;20025;-66
2022/11/10 03:22:51;;;;;;;10.73;3.53;;;;;;;8.16;100.00;101688.78;5249030;28;20111;-66
2022/11/10 03:25:22;;;;;;;14.63;3.47;;;;;;;8.17;100.00;101698.47;5248638;28;20036;-65
2022/11/10 03:27:54;;;;;;;14.75;3.15;;;;;;;8.21;100.00;101698.22;5248198;28;20032;-66
2022/11/10 03:30:26;;;;;;;16.05;3.65;;;;;;;8.14;100.00;101703.97;5241276;28;20041;-66
2022/11/10 03:32:58;;;;;;;13.50;3.78;;;;;;;8.13;100.00;101718.16;5250478;28;20039;-66
2022/11/10 03:35:29;;;;;;;16.13;3.55;;;;;;;8.09;100.00;101720.13;5246541;28;20484;-65
2022/11/10 03:38:01;;;;;;;10.20;3.10;;;;;;;8.09;100.00;101722.78;5247338;28;20032;-66
2022/11/10 03:40:32;;;;;;;12.10;2.95;;;;;;;8.12;100.00;101724.44;5251262;28;20024;-66
2022/11/10 03:43:03;;;;;;;15.73;3.25;;;;;;;8.10;100.00;101734.28;5247285;28;20036;-67
2022/11/10 03:45:34;;;;;;;12.35;2.85;;;;;;;8.04;100.00;101740.78;5252909;28;20502;-66
2022/11/10 03:48:06;;;;;;;14.57;3.45;;;;;;;8.05;100.00;101738.06;5247904;28;20366;-66
2022/11/10 03:50:37;;;;;;;15.65;3.05;;;;;;;8.04;100.00;101746.94;5246740;28;21008;-66
2022/11/10 03:53:08;;;;;;;10.20;3.17;;;;;;;7.98;100.00;101741.09;5251122;28;20032;-65
2022/11/10 03:55:39;;;;;;;12.98;3.05;;;;;;;8.03;100.00;101741.72;5249778;28;20036;-66
2022/11/10 03:58:11;;;;;;;14.60;2.90;;;;;;;7.94;100.00;101756.34;5246838;28;20025;-66
2022/11/10 04:00:42;;;;;;;16.50;3.40;;;;;;;7.95;100.00;101758.03;5247734;28;20032;-67
2022/11/10 04:03:13;;;;;;;15.23;4.13;;;;;;;7.98;100.00;101759.72;5246689;28;20509;-66
2022/11/10 04:17:05;;;;;;;14.32;3.75;;;;;;;7.87;100.00;101772.69;5247483;28;20040;-67
2022/11/10 04:19:36;;;;;;;14.52;3.53;;;;;;;7.83;100.00;101774.63;5247502;28;20025;-66
2022/11/10 04:23:25;;;;;;;13.88;3.55;;;;;;;7.85;100.00;101778.91;5247765;28;20509;-66
2022/11/10 04:24:59;;;;;;;10.40;3.15;;;;;;;7.83;100.00;101787.91;5244261;28;20049;-66
2022/11/10 04:27:30;;;;;;;16.15;3.33;;;;;;;7.84;100.00;101795.81;5246331;28;20669;-67
2022/11/10 04:30:02;;;;;;;15.20;3.20;;;;;;;7.81;100.00;101795.09;5253317;28;20461;-66
2022/11/10 04:32:33;;;;;;;15.68;3.88;;;;;;;7.81;100.00;101801.25;5243077;28;20475;-66
2022/11/10 04:35:04;;;;;;;13.93;3.63;;;;;;;7.91;100.00;101795.50;5247501;28;20033;-66
2022/11/10 04:37:36;;;;;;;15.68;3.33;;;;;;;7.83;100.00;101809.16;5246478;28;20047;-66
2022/11/10 04:40:07;;;;;;;15.30;3.83;;;;;;;7.82;100.00;101808.31;5245943;28;20483;-66
2022/11/10 04:42:39;;;;;;;22.95;3.80;;;;;;;7.82;100.00;101810.09;5246408;28;20080;-66
2022/11/10 04:45:10;;;;;;;15.75;3.83;;;;;;;7.80;100.00;101812.81;5243649;28;20085;-67
2022/11/10 04:47:41;;;;;;;19.55;5.28;;;;;;;7.81;100.00;101822.50;5243149;28;20470;-67
2022/11/10 04:50:13;;;;;;;18.95;3.53;;;;;;;7.88;100.00;101820.44;5252440;28;20102;-66
2022/11/10 04:52:44;;;;;;;17.27;3.35;;;;;;;7.79;100.00;101827.03;5252518;28;20398;-66
2022/11/10 04:55:15;;;;;;;12.80;3.90;;;;;;;7.81;100.00;101834.94;5248729;28;20097;-66
2022/11/10 04:57:46;;;;;;;12.25;3.22;;;;;;;7.78;100.00;101832.44;5242773;28;20192;-66
2022/11/10 05:00:18;;;;;;;16.25;3.42;;;;;;;7.79;100.00;101839.47;5245881;28;20536;-66
2022/11/10 05:02:49;;;;;;;14.43;3.25;;;;;;;7.77;100.00;101844.00;5248120;28;20025;-66
2022/11/10 05:05:20;;;;;;;12.52;3.22;;;;;;;7.86;100.00;101843.53;5249510;28;20064;-66
2022/11/10 05:07:52;;;;;;;14.52;3.10;;;;;;;7.75;100.00;101848.53;5248978;28;20635;-66
2022/11/10 05:10:24;;;;;;;13.60;3.83;;;;;;;7.76;100.00;101850.25;5250353;28;20501;-66
2022/11/10 05:12:56;;;;;;;12.43;4.03;;;;;;;7.74;100.00;101852.13;5247566;28;20036;-66
2022/11/10 05:15:28;;;;;;;14.18;2.97;;;;;;;7.75;100.00;101856.50;5243096;28;20134;-66
2022/11/10 05:17:59;;;;;;;13.40;4.00;;;;;;;7.75;100.00;101860.00;5243031;28;20115;-66
2022/11/10 05:20:31;;;;;;;14.60;3.10;;;;;;;7.72;100.00;101856.63;5249042;28;20039;-66
2022/11/10 05:25:52;;;;;;;19.42;3.25;;;;;;;7.71;100.00;101866.41;5248869;28;20072;-66
2022/11/10 05:28:24;;;;;;;15.52;3.58;;;;;;;7.68;100.00;101868.34;5249717;28;20380;-66
2022/11/10 05:30:55;;;;;;;15.82;3.17;;;;;;;7.65;100.00;101866.69;5250139;28;20519;-66
2022/11/10 05:33:26;;;;;;;17.17;3.60;;;;;;;7.72;100.00;101864.59;5251704;28;20529;-66
2022/11/10 05:35:57;;;;;;;10.95;3.08;;;;;;;7.63;100.00;101860.59;5247799;28;20506;-66
2022/11/10 05:38:29;;;;;;;11.32;3.10;;;;;;;7.62;100.00;101862.38;5248749;28;20462;-67
2022/11/10 05:41:00;;;;;;;9.07;2.83;;;;;;;7.63;100.00;101850.84;5250516;28;20036;-66
2022/11/10 05:43:31;;;;;;;11.82;3.22;;;;;;;7.67;100.00;101848.91;5249133;28;20044;-66
2022/11/10 05:46:03;;;;;;;13.20;4.68;;;;;;;7.68;100.00;101855.06;5250491;28;20098;-66
2022/11/10 05:48:34;;;;;;;13.63;3.22;;;;;;;7.69;100.00;101865.63;5243616;28;20409;-66
2022/11/10 05:51:05;;;;;;;14.38;3.40;;;;;;;7.61;100.00;101873.97;5238811;28;20372;-66
2022/11/10 05:53:37;;;;;;;13.10;3.45;;;;;;;7.57;100.00;101888.28;5246353;28;20044;-66
2022/11/10 05:56:08;;;;;;;12.75;3.15;;;;;;;7.61;100.00;101889.00;5252379;28;20052;-66
2022/11/10 05:58:39;;;;;;;14.68;3.30;;;;;;;7.56;100.00;101880.44;5251833;28;20032;-66
2022/11/10 06:01:10;;;;;;;16.90;3.58;;;;;;;7.55;100.00;101881.34;5251849;28;20284;-68
2022/11/10 06:03:42;;;;;;;12.52;2.90;;;;;;;7.54;100.00;101887.59;5249493;28;20379;-66
2022/11/10 06:06:13;;;;;;;14.38;4.18;;;;;;;7.51;100.00;101885.09;5255167;28;20535;-67
2022/11/10 06:08:44;;;;;;;16.00;3.47;;;;;;;7.52;100.00;101895.63;5250174;28;20017;-66
2022/11/10 06:11:16;;;;;;;12.48;3.58;;;;;;;7.50;100.00;101897.50;5250169;28;20044;-66
2022/11/10 06:13:47;;;;;;;11.73;3.25;;;;;;;7.52;100.00;101905.41;5256121;28;20044;-66
2022/11/10 06:16:18;;;;;;;12.70;3.63;;;;;;;7.47;100.00;101908.25;5253828;28;20098;-66
2022/11/10 06:18:49;;;;;;;14.05;3.80;;;;;;;7.51;100.00;101917.81;5249096;28;20048;-66
2022/11/10 06:21:21;;;;;;;13.80;3.78;;;;;;;7.55;100.00;101911.41;5247163;28;20060;-66
2022/11/10 06:23:52;;;;;;;13.80;3.40;;;;;;;7.44;100.00;101909.28;5254741;28;20033;-66
2022/11/10 06:26:23;;;;;;;15.25;3.58;;;;;;;7.46;100.00;101911.88;5248015;28;20028;-67
2022/11/10 06:28:54;;;;;;;13.05;3.70;;;;;;;7.47;100.00;101916.22;5248064;28;20098;-66
2022/11/10 06:31:26;;;;;;;12.77;3.25;;;;;;;7.43;100.00;101912.00;5247225;28;20449;-66
2022/11/10 06:33:57;;;;;;;11.50;3.25;;;;;;;7.43;100.00;101919.97;5250138;28;20032;-66
2022/11/10 06:36:28;;;;;;;12.80;2.90;;;;;;;7.42;100.00;101921.75;5246987;28;20113;-66
2022/11/10 06:39:00;;;;;;;16.25;3.90;;;;;;;7.51;100.00;101936.38;5248965;28;20025;-66
2022/11/10 06:41:32;;;;;;;15.32;3.33;;;;;;;7.43;100.00;101941.19;5248076;28;20060;-66
2022/11/10 06:44:05;;;;;;;17.55;4.18;;;;;;;7.50;100.00;101940.00;5253415;28;20409;-66
2022/11/10 06:46:36;;;;;;;15.15;3.80;;;;;;;7.47;100.00;101954.25;5252543;28;20039;-66
2022/11/10 06:49:07;;;;;;;11.90;3.50;;;;;;;7.48;100.00;101957.78;5254619;28;20025;-66
2022/11/10 06:51:39;;;;;;;14.63;3.55;;;;;;;7.44;100.00;101961.50;5249657;28;20066;-66
2022/11/10 06:54:11;;;;;;;15.00;3.47;;;;;;;7.49;100.00;101958.66;5248006;28;20075;-66
2022/11/10 06:56:42;;;;;;;15.23;3.42;;;;;;;7.47;100.00;101972.00;5252363;28;20095;-66
2022/11/10 06:59:13;;;;;;;15.68;3.80;;;;;;;7.43;100.00;101975.72;5253383;28;20060;-66
2022/11/10 07:01:44;;;;;;;16.85;3.80;;;;;;;7.48;100.00;101968.41;5252309;28;20033;-66
2022/11/10 07:04:16;;;;;;;11.70;3.58;;;;;;;7.44;100.00;101973.00;5251730;28;20033;-66
2022/11/10 07:06:47;;;;;;;17.38;4.90;;;;;;;7.44;100.00;101973.00;5254492;28;20052;-66
2022/11/10 07:09:19;;;;;;;16.88;3.45;;;;;;;7.43;100.00;101978.38;5250966;28;20028;-66
2022/11/10 07:11:50;;;;;;;15.10;3.55;;;;;;;7.44;100.00;101977.44;5252313;28;20133;-66
2022/11/10 07:14:22;;;;;;;12.95;3.42;;;;;;;7.45;100.00;101981.81;5247967;28;20041;-66
2022/11/10 07:16:53;;;;;;;12.48;3.75;;;;;;;7.46;100.00;101988.88;5254669;28;20036;-66
2022/11/10 07:19:24;;;;;;;14.80;3.58;;;;;;;7.53;100.00;102006.22;5254405;28;20063;-66
2022/11/10 07:21:55;;;;;;;14.18;3.15;;;;;;;7.47;100.00;102004.72;5252203;28;20039;-66
2022/11/10 07:24:29;;;;;;;12.57;3.38;;;;;;;7.52;100.00;102006.31;5252937;28;20036;-66
2022/11/10 07:27:00;;;;;;;15.13;3.47;;;;;;;7.53;100.00;102008.03;5250699;28;20055;-66
2022/11/10 07:29:31;;;;;;;14.00;3.35;;;;;;;7.50;100.00;102013.47;5250042;28;20063;-66
2022/11/10 07:32:03;;;;;;;19.00;4.20;;;;;;;7.54;100.00;102023.91;5248432;28;20045;-66
2022/11/10 07:34:34;;;;;;;15.98;3.70;;;;;;;7.54;100.00;102038.97;5248893;28;20175;-66
2022/11/10 07:37:05;;;;;;;17.60;3.10;;;;;;;7.59;100.00;102029.00;5253234;28;20119;-66
2022/11/10 07:39:36;;;;;;;17.92;4.38;;;;;;;7.62;100.00;102029.72;5252515;28;20040;-66
2022/11/10 07:42:08;;;;;;;16.40;3.17;;;;;;;7.62;100.00;102037.69;5253078;28;20114;-66
2022/11/10 07:44:39;;;;;;;16.17;4.68;;;;;;;7.66;100.00;102031.31;5248379;28;20415;-66
2022/11/10 07:47:10;;;;;;;20.02;4.50;;;;;;;7.71;100.00;102035.53;5246308;28;20036;-67
2022/11/10 07:49:41;;;;;;;16.05;3.78;;;;;;;7.72;100.00;102034.63;5251348;28;20036;-66
2022/11/10 07:52:13;;;;;;;18.90;3.83;;;;;;;7.72;100.00;102039.94;5252471;28;20033;-66
2022/11/10 07:54:44;;;;;;;15.15;4.10;;;;;;;7.78;100.00;102034.34;5249240;28;20052;-66
2022/11/10 07:57:15;;;;;;;16.08;4.00;;;;;;;7.78;100.00;102037.00;5250133;28;20033;-66
2022/11/10 07:59:46;;;;;;;13.73;4.05;;;;;;;7.81;100.00;102039.53;5251848;28;20144;-66
2022/11/10 08:02:17;;;;;;;21.38;3.88;;;;;;;7.88;100.00;102051.59;5248437;28;20047;-66
2022/11/10 08:04:49;;;;;;;19.70;4.85;;;;;;;7.83;100.00;102053.59;5249940;28;20032;-66
2022/11/10 08:07:20;;;;;;;19.98;7.57;;;;;;;7.94;100.00;102059.28;5250111;28;20174;-69
2022/11/10 08:09:51;;;;;;;18.60;3.95;;;;;;;7.91;100.00;102058.56;5253541;28;20637;-66
2022/11/10 08:12:22;;;;;;;14.70;4.15;;;;;;;7.94;100.00;102069.91;5250377;28;20125;-66
2022/11/10 08:14:54;;;;;;;16.05;4.00;;;;;;;7.94;100.00;102074.34;5246276;28;20093;-66
2022/11/10 08:17:25;;;;;;;16.48;4.90;;;;;;;8.03;100.00;102090.75;5249651;28;20107;-66
2022/11/10 08:19:57;;;;;;;13.50;4.00;;;;;;;7.98;100.00;102090.09;5251393;28;20024;-66
2022/11/10 08:22:28;;;;;;;14.15;3.42;;;;;;;8.04;100.00;102084.50;5252403;28;20043;-66
2022/11/10 08:24:59;;;;;;;14.63;4.50;;;;;;;8.03;100.00;102090.75;5251615;28;20126;-67
2022/11/10 08:27:30;;;;;;;22.10;6.32;;;;;;;8.08;100.00;102087.03;5239249;28;20037;-67
2022/11/10 08:30:02;;;;;;;18.20;4.55;;;;;;;8.12;100.00;102091.25;5248293;28;20029;-67
2022/11/10 08:32:33;;;;;;;20.92;4.65;;;;;;;8.15;100.00;102096.41;5239914;28;20129;-65
2022/11/10 08:35:05;;;;;;;18.65;4.22;;;;;;;8.16;100.00;102100.81;5247283;28;20037;-66
2022/11/10 08:37:36;;;;;;;16.90;4.20;;;;;;;8.21;100.00;102101.47;5239129;28;20033;-65
2022/11/10 08:40:08;;;;;;;15.93;4.20;;;;;;;8.23;100.00;102103.13;5249385;28;20095;-66
2022/11/10 08:42:39;;;;;;;18.65;4.53;;;;;;;8.30;100.00;102094.84;5245404;28;20020;-67
2022/11/10 08:45:11;;;;;;;20.65;4.82;;;;;;;8.36;100.00;102099.88;5253881;28;20047;-67
2022/11/10 08:47:43;;;;;;;20.73;4.05;;;;;;;8.45;100.00;102110.13;5251073;28;20025;-66
2022/11/10 08:50:15;;;;;;;17.90;5.07;;;;;;;8.50;100.00;102099.28;5251082;28;20047;-66
2022/11/10 08:52:46;;;;;;;13.95;4.20;;;;;;;8.52;100.00;102105.38;5240836;28;20485;-67
2022/11/10 08:55:18;;;;;;;15.63;4.13;;;;;;;8.59;100.00;102112.13;5250517;28;20429;-66
2022/11/10 08:57:50;;;;;;;14.55;4.53;;;;;;;8.60;100.00;102109.38;5251610;28;21227;-67
2022/11/10 09:00:21;;;;;;;14.35;3.72;;;;;;;8.64;100.00;102118.94;5252576;28;20123;-66
2022/11/10 09:02:54;;;;;;;16.17;4.03;;;;;;;8.74;100.00;102123.84;5248395;28;20029;-66
2022/11/10 09:05:26;;;;;;;19.13;4.10;;;;;;;8.76;100.00;102124.63;5253157;28;20032;-66
2022/11/10 09:07:57;;;;;;;17.30;4.75;;;;;;;8.80;100.00;102127.06;5246825;28;20043;-66
2022/11/10 09:10:29;;;;;;;18.05;4.30;;;;;;;8.93;100.00;102129.97;5251422;28;20094;-67
2022/11/10 09:13:02;;;;;;;15.88;4.32;;;;;;;8.91;100.00;102139.84;5247133;28;20556;-67
2022/11/10 09:15:34;;;;;;;16.75;3.90;;;;;;;8.95;100.00;102141.41;5249139;28;20032;-66
2022/11/10 09:18:08;;;;;;;16.83;4.40;;;;;;;9.09;100.00;102140.75;5244962;28;20030;-66
2022/11/10 09:20:40;;;;;;;15.65;3.97;;;;;;;9.03;100.00;102141.03;5240164;28;20114;-66
2022/11/10 09:23:14;;;;;;;14.60;3.67;;;;;;;9.14;100.00;102144.03;5247735;28;20039;-66
2022/11/10 09:25:51;;;;;;;15.27;4.03;;;;;;;9.23;100.00;102154.22;5250922;28;20037;-66
2022/11/10 09:28:23;;;;;;;20.35;4.05;;;;;;;9.19;100.00;102147.34;5249485;28;20085;-66
2022/11/10 09:30:54;;;;;;;17.23;4.63;;;;;;;9.23;100.00;102142.72;5249596;28;20044;-67
2022/11/10 09:33:25;;;;;;;17.20;4.85;;;;;;;9.26;100.00;102147.88;5257302;28;20360;-67
2022/11/10 09:35:58;;;;;;;14.07;3.97;;;;;;;9.36;100.00;102143.84;5255862;28;20436;-67
2022/11/10 09:38:29;;;;;;;15.15;4.35;;;;;;;9.52;100.00;102145.72;5255180;28;20063;-67
2022/11/10 09:41:04;;;;;;;13.05;3.33;;;;;;;9.45;100.00;102142.50;5255736;28;20037;-67
2022/11/10 09:43:45;;;;;;;14.40;3.97;;;;;;;9.53;100.00;102148.31;5244647;28;20033;-67
2022/11/10 09:46:23;;;;;;;15.00;3.55;;;;;;;9.56;100.00;102148.13;5249505;28;20106;-67
2022/11/10 09:49:24;;;;;;;16.30;3.80;;;;;;;9.62;100.00;102149.63;5253389;28;20116;-67
2022/11/10 09:51:57;;;;;;;16.40;3.72;;;;;;;9.67;100.00;102160.06;5256410;28;20045;-67
2022/11/10 09:54:38;;;;;;;15.70;4.07;;;;;;;9.73;100.00;102157.94;5259347;28;20053;-67
2022/11/10 09:57:18;;;;;;;20.63;4.20;;;;;;;9.78;100.00;102160.38;5256254;28;20226;-66
2022/11/10 09:59:49;;;;;;;20.38;4.00;;;;;;;9.87;100.00;102151.00;5257035;28;20039;-68
2022/11/10 10:02:38;;;;;;;18.80;3.85;;;;;;;9.94;100.00;102153.28;5249087;28;20037;-68
2022/11/10 10:05:18;;;;;;;17.00;3.28;;;;;;;10.04;100.00;102153.66;5254527;28;20028;-67
2022/11/10 10:08:01;;;;;;;15.13;3.85;;;;;;;10.10;100.00;102157.78;5255054;28;20106;-67
2022/11/10 10:10:43;;;;;;;17.40;3.42;;;;;;;10.11;100.00;102149.72;5250662;28;20033;-67
2022/11/10 10:13:56;;;;;;;14.32;3.65;;;;;;;10.17;100.00;102149.38;5255567;28;20040;-68
2022/11/10 10:16:53;;;;;;;14.13;3.97;;;;;;;10.26;100.00;102158.72;5255159;28;20029;-67
2022/11/10 10:19:53;;;;;;;10.55;3.15;;;;;;;10.37;100.00;102160.81;5257075;28;20035;-68
2022/11/10 10:22:44;;;;;;;14.52;3.28;;;;;;;10.41;100.00;102173.03;5256958;28;20486;-68
2022/11/10 10:25:24;;;;;;;15.52;2.95;;;;;;;10.48;100.00;102178.91;5251075;28;20078;-68
2022/11/10 10:28:03;;;;;;;10.32;2.90;;;;;;;10.56;100.00;102182.00;5255735;28;20123;-68
2022/11/10 10:30:35;;;;;;;14.60;2.92;;;;;;;10.62;100.00;102181.66;5257250;28;20116;-67
2022/11/10 10:33:21;;;;;;;12.15;2.95;;;;;;;10.65;100.00;102186.00;5247402;28;20431;-66
2022/11/10 10:35:52;;;;;;;16.27;3.97;;;;;;;10.70;100.00;102191.91;5251209;28;20025;-67
2022/11/10 10:38:35;;;;;;;16.48;4.10;;;;;;;10.81;100.00;102207.34;5249058;28;20031;-67
2022/11/10 10:41:13;;;;;;;16.13;3.85;;;;;;;10.87;100.00;102205.19;5255657;28;21520;-66
2022/11/10 10:43:47;;;;;;;16.85;3.63;;;;;;;10.93;100.00;102212.00;5249785;28;20130;-66
2022/11/10 10:46:23;;;;;;;17.80;4.78;;;;;;;11.02;100.00;102215.97;5243949;28;20727;-65
2022/11/10 10:49:12;;;;;;;14.75;4.15;;;;;;;11.06;100.00;102228.19;5252701;28;20021;-67
2022/11/10 10:51:44;;;;;;;16.25;2.83;;;;;;;11.11;100.00;102235.00;5246040;28;20423;-66
2022/11/10 10:54:22;;;;;;;12.90;2.70;;;;;;;11.15;100.00;102236.53;5228602;28;20159;-67
2022/11/10 10:57:20;;;;;;;12.25;2.97;;;;;;;11.25;100.00;102211.97;5229449;28;20666;-66
2022/11/10 11:00:18;;;;;;;13.30;3.75;;;;;;;11.25;100.00;102220.84;5244337;28;20554;-67
2022/11/10 11:03:05;;;;;;;14.25;3.20;;;;;;;11.36;100.00;102228.25;5250689;28;20036;-67
2022/11/10 11:05:36;;;;;;;15.23;3.00;;;;;;;11.37;100.00;102224.63;5251335;28;20033;-67
2022/11/10 11:08:16;;;;;;;11.40;2.45;;;;;;;11.43;100.00;102226.97;5247180;28;20106;-66
2022/11/10 11:10:47;;;;;;;14.25;2.15;;;;;;;11.42;100.00;102216.38;5253366;28;20033;-67
2022/11/10 11:13:23;;;;;;;9.60;3.13;;;;;;;11.49;100.00;102220.41;5247709;28;20040;-67
2022/11/10 11:16:03;;;;;;;11.88;2.60;;;;;;;11.51;100.00;102224.69;5251528;28;20028;-67
2022/11/10 11:18:38;;;;;;;10.32;2.55;;;;;;;11.55;100.00;102222.72;5243448;28;20021;-67
2022/11/10 11:21:34;;;;;;;14.55;2.60;;;;;;;11.58;100.00;102228.75;5248475;28;20445;-67
2022/11/10 11:24:24;;;;;;;10.50;2.42;;;;;;;11.60;100.00;102225.97;5252285;28;20387;-67
2022/11/10 11:27:03;;;;;;;10.60;2.25;;;;;;;11.73;100.00;102218.09;5243172;28;20593;-67
2022/11/10 11:29:48;;;;;;;15.50;4.10;;;;;;;11.67;100.00;102218.44;5248659;28;20031;-67
2022/11/10 11:32:57;;;;;;;13.20;2.35;;;;;;;11.79;100.00;102215.03;5244115;28;20048;-67
2022/11/10 11:35:50;;;;;;;15.60;3.42;;;;;;;11.91;100.00;102222.38;5249348;28;20025;-67
2022/11/10 11:38:40;;;;;;;11.30;2.00;;;;;;;12.02;100.00;102242.25;5255650;28;20532;-67
2022/11/10 11:41:39;;;;;;;9.13;1.90;;;;;;;12.08;100.00;102245.44;5254216;28;20047;-67
2022/11/10 11:44:24;;;;;;;12.50;2.30;;;;;;;12.18;100.00;102247.53;5253450;28;20029;-67
2022/11/10 11:47:01;;;;;;;7.72;2.10;;;;;;;12.24;100.00;102249.84;5251167;28;20037;-67
2022/11/10 11:49:57;;;;;;;8.77;2.00;;;;;;;12.26;100.00;102255.97;5249264;28;20032;-67
2022/11/10 11:52:56;;;;;;;10.27;1.83;;;;;;;12.35;100.00;102260.78;5256362;28;20064;-67
2022/11/10 11:55:49;;;;;;;11.18;2.28;;;;;;;12.29;100.00;102253.97;5252432;28;20106;-67
2022/11/10 11:58:38;;;;;;;9.38;2.10;;;;;;;12.27;100.00;102263.91;5254429;28;20116;-67
2022/11/10 12:01:35;;;;;;;10.05;2.20;;;;;;;12.32;100.00;102264.47;5245983;28;20043;-67
2022/11/10 12:04:20;;;;;;;9.63;2.10;;;;;;;12.30;100.00;102273.56;5244756;28;20436;-68
2022/11/10 12:07:10;;;;;;;13.07;2.38;;;;;;;12.34;100.00;102278.63;5246089;28;20060;-67